| Date | Time | Temp. (oF) | Dew Point (oF) | Rel. Hum. (%) | Press. (in.) | Wind Dir. | Wind Speed (mph) | Hourly Rainfall (in.) |
|
|---|---|---|---|---|---|---|---|---|---|
| 1 | 01/01 | 00:00 | 17 | 8 | 69 | 30.13 | WNW | 2 | 0.00 |
| 2 | 12/31 | 23:00 | 18 | 8 | 66 | 30.13 | WNW | 4 | 0.00 |
| 3 | 12/31 | 22:00 | 19 | 8 | 64 | 30.13 | WNW | 6 | 0.00 |
| 4 | 12/31 | 21:00 | 20 | 8 | 60 | 30.14 | NW | 4 | 0.00 |
| 5 | 12/31 | 20:00 | 21 | 8 | 58 | 30.13 | NW | 2 | 0.00 |
| 6 | 12/31 | 19:00 | 22 | 8 | 55 | 30.12 | WSW | 1 | 0.00 |
| 7 | 12/31 | 18:00 | 24 | 8 | 51 | 30.10 | WNW | 3 | 0.00 |
| 8 | 12/31 | 17:00 | 26 | 8 | 47 | 30.08 | W | 4 | 0.00 |
| 9 | 12/31 | 16:00 | 29 | 8 | 42 | 30.04 | WNW | 6 | 0.00 |
| 10 | 12/31 | 15:00 | 29 | 8 | 41 | 30.05 | W | 6 | 0.00 |
| 11 | 12/31 | 14:00 | 29 | 9 | 44 | 30.06 | SW | 7 | 0.00 |
| 12 | 12/31 | 13:00 | 28 | 9 | 46 | 30.08 | W | 6 | 0.00 |
| 13 | 12/31 | 12:00 | 26 | 10 | 52 | 30.11 | S | 6 | 0.00 |
| 14 | 12/31 | 11:00 | 24 | 10 | 55 | 30.15 | W | 5 | 0.00 |
| 15 | 12/31 | 10:00 | 22 | 10 | 60 | 30.16 | WSW | 5 | 0.00 |
| 16 | 12/31 | 09:00 | 18 | 12 | 77 | 30.16 | SW | 2 | 0.00 |
| 17 | 12/31 | 08:00 | 12 | 8 | 85 | 30.15 | WSW | 1 | 0.00 |
| 18 | 12/31 | 07:00 | 13 | 8 | 83 | 30.13 | SSW | 1 | 0.00 |
| 19 | 12/31 | 06:00 | 12 | 8 | 87 | 30.11 | SW | 1 | 0.00 |
| 20 | 12/31 | 05:00 | 12 | 7 | 83 | 30.09 | WSW | 0 | 0.00 |
| 21 | 12/31 | 04:00 | 14 | 7 | 76 | 30.11 | WSW | 0 | 0.00 |
| 22 | 12/31 | 03:00 | 15 | 7 | 71 | 30.12 | SSW | 2 | 0.00 |
| 23 | 12/31 | 02:00 | 17 | 8 | 68 | 30.11 | SSW | 2 | 0.00 |
| 24 | 12/31 | 01:00 | 17 | 7 | 67 | 30.10 | SW | 3 | 0.00 |